| time (UTC) | temp C | wind direction | speed KPH | gust KPH | rain 1hr cm | rain 24hr cm | rain mn cm | humidity % | barometer mb |
| 20260506184831 | 26 | 360 | 6.4 | 14.5 | 0.00 | 0.00 | 0.00 | 79 | 1009.7 |
| 20260506184329 | 25 | 360 | 6.4 | 14.5 | 0.00 | 0.00 | 0.00 | 79 | 1009.7 |
| 20260506183827 | 25 | 360 | 3.2 | 17.7 | 0.00 | 0.00 | 0.00 | 81 | 1009.9 |
| 20260506183325 | 25 | 360 | 6.4 | 17.7 | 0.00 | 0.00 | 0.00 | 81 | 1009.9 |
| 20260506182842 | 25 | 360 | 4.8 | 14.5 | 0.00 | 0.00 | 0.00 | 82 | 1010.0 |
| 20260506182315 | 24 | 360 | 6.4 | 12.9 | 0.00 | 0.00 | 0.00 | 84 | 1009.9 |
| 20260506181816 | 23 | 360 | 1.6 | 14.5 | 0.00 | 0.00 | 0.00 | 84 | 1009.9 |
| 20260506181328 | 23 | 360 | 4.8 | 16.1 | 0.00 | 0.00 | 0.00 | 83 | 1009.9 |
| 20260506180828 | 23 | 360 | 8.0 | 17.7 | 0.00 | 0.00 | 0.00 | 83 | 1009.9 |
| 20260506180326 | 23 | 360 | 6.4 | 17.7 | 0.00 | 0.00 | 0.00 | 84 | 1009.9 |
| 20260506175825 | 22 | 360 | 4.8 | 16.1 | 0.00 | 0.00 | 0.00 | 88 | 1010.1 |
| 20260506175322 | 21 | 360 | 8.0 | 16.1 | 0.00 | 0.00 | 0.00 | 90 | 1010.1 |
| 20260506174821 | 21 | 360 | 6.4 | 17.7 | 0.00 | 0.00 | 0.00 | 90 | 1010.1 |
| 20260506174320 | 20 | 360 | 4.8 | 12.9 | 0.00 | 0.00 | 0.00 | 91 | 1010.3 |
| 20260506173820 | 20 | 360 | 1.6 | 17.7 | 0.00 | 0.00 | 0.00 | 91 | 1010.5 |
| 20260506173318 | 20 | 360 | 4.8 | 17.7 | 0.00 | 0.00 | 0.00 | 90 | 1010.8 |
| 20260506172817 | 20 | 360 | 6.4 | 20.9 | 0.00 | 0.00 | 0.00 | 88 | 1010.8 |
| 20260506172317 | 21 | 360 | 6.4 | 19.3 | 0.00 | 0.00 | 0.00 | 86 | 1010.9 |
| 20260506171814 | 21 | 360 | 8.0 | 22.5 | 0.00 | 0.00 | 0.00 | 85 | 1011.1 |
| 20260506171334 | 22 | 360 | 9.7 | 22.5 | 0.00 | 0.00 | 0.00 | 84 | 1011.1 |
| 20260506170831 | 23 | 360 | 11.3 | 20.9 | 0.00 | 0.00 | 0.00 | 83 | 1011.0 |
| 20260506170330 | 24 | 360 | 11.3 | 33.8 | 0.00 | 0.00 | 0.00 | 80 | 1010.9 |
| 20260506165829 | 26 | 360 | 17.7 | 33.8 | 0.00 | 0.00 | 0.00 | 77 | 1010.9 |
| 20260506165318 | 27 | 360 | 4.8 | 16.1 | 0.00 | 0.00 | 0.00 | 86 | 1010.6 |
| 20260506164817 | 27 | 360 | 6.4 | 16.1 | 0.00 | 0.00 | 0.00 | 88 | 1010.6 |
| 20260506164332 | 27 | 360 | 4.8 | 9.7 | 0.00 | 0.00 | 0.00 | 89 | 1010.5 |
| 20260506163832 | 27 | 360 | 3.2 | 9.7 | 0.00 | 0.00 | 0.00 | 90 | 1010.7 |
| 20260506163330 | 26 | 360 | 3.2 | 8.0 | 0.00 | 0.00 | 0.00 | 90 | 1010.7 |
| 20260506162830 | 26 | 360 | 3.2 | 9.7 | 0.00 | 0.00 | 0.00 | 90 | 1010.8 |
| 20260506162329 | 26 | 360 | 3.2 | 12.9 | 0.00 | 0.00 | 0.00 | 91 | 1010.8 |
| 20260506161825 | 26 | 360 | 4.8 | 12.9 | 0.00 | 0.00 | 0.00 | 90 | 1010.8 |
| 20260506161321 | 26 | 360 | 4.8 | 8.0 | 0.00 | 0.00 | 0.00 | 92 | 1011.0 |
| 20260506160819 | 26 | 360 | 1.6 | 8.0 | 0.00 | 0.00 | 0.00 | 91 | 1011.0 |
| 20260506160317 | 26 | 360 | 4.8 | 8.0 | 0.00 | 0.00 | 0.00 | 91 | 1010.9 |
| 20260506155816 | 26 | 360 | 1.6 | 8.0 | 0.00 | 0.00 | 0.00 | 92 | 1010.8 |
| 20260506155314 | 26 | 360 | 3.2 | 8.0 | 0.00 | 0.00 | 0.00 | 92 | 1010.7 |
| 20260506154815 | 26 | 360 | 4.8 | 8.0 | 0.00 | 0.00 | 0.00 | 92 | 1010.5 |
| 20260506154314 | 26 | 360 | 3.2 | 6.4 | 0.00 | 0.00 | 0.00 | 92 | 1010.4 |
| 20260506153813 | 26 | 360 | 1.6 | 6.4 | 0.00 | 0.00 | 0.00 | 92 | 1010.2 |
| 20260506153330 | 26 | 360 | 3.2 | 6.4 | 0.00 | 0.00 | 0.00 | 92 | 1010.0 |
| 20260506152829 | 26 | 360 | 0.0 | 4.8 | 0.00 | 0.00 | 0.00 | 92 | 1009.8 |
| 20260506152326 | 26 | 360 | 1.6 | 4.8 | 0.00 | 0.00 | 0.00 | 92 | 1009.6 |
| 20260506151825 | 26 | 360 | 1.6 | 4.8 | 0.00 | 0.00 | 0.00 | 92 | 1009.6 |
| 20260506151324 | 26 | 360 | 1.6 | 4.8 | 0.00 | 0.00 | 0.00 | 92 | 1009.5 |
| 20260506150825 | 26 | 360 | 1.6 | 4.8 | 0.00 | 0.00 | 0.00 | 92 | 1009.5 |
| 20260506150318 | 26 | 360 | 1.6 | 6.4 | 0.00 | 0.00 | 0.00 | 93 | 1009.4 |
| 20260506145817 | 25 | 360 | 1.6 | 4.8 | 0.00 | 0.00 | 0.00 | 93 | 1009.4 |
| 20260506145314 | 25 | 360 | 1.6 | 6.4 | 0.00 | 0.00 | 0.00 | 93 | 1009.2 |
| 20260506144813 | 25 | 360 | 1.6 | 6.4 | 0.00 | 0.00 | 0.00 | 93 | 1009.4 |
| 20260506144313 | 25 | 360 | 3.2 | 6.4 | 0.00 | 0.00 | 0.00 | 94 | 1009.3 |
| 20260506143812 | 25 | 360 | 0.0 | 3.2 | 0.00 | 0.00 | 0.00 | 94 | 1009.4 |
| 20260506143325 | 25 | 360 | 1.6 | 3.2 | 0.00 | 0.00 | 0.00 | 94 | 1009.5 |
| 20260506142825 | 25 | 360 | 1.6 | 4.8 | 0.00 | 0.00 | 0.00 | 94 | 1009.5 |
| 20260506142320 | 25 | 360 | 0.0 | 4.8 | 0.00 | 0.00 | 0.00 | 93 | 1009.5 |
| 20260506141818 | 25 | 360 | 1.6 | 4.8 | 0.00 | 0.00 | 0.00 | 93 | 1009.3 |
| 20260506141336 | 25 | 360 | 1.6 | 4.8 | 0.00 | 0.00 | 0.00 | 94 | 1009.1 |
| 20260506140814 | 25 | 360 | 0.0 | 3.2 | 0.00 | 0.00 | 0.00 | 94 | 1009.0 |
| 20260506140312 | 25 | 360 | 1.6 | 3.2 | 0.00 | 0.00 | 0.00 | 94 | 1008.8 |
| 20260506135813 | 25 | 360 | 0.0 | 4.8 | 0.00 | 0.00 | 0.00 | 94 | 1008.7 |
| 20260506135351 | 25 | 360 | 1.6 | 4.8 | 0.00 | 0.00 | 0.00 | 94 | 1008.5 |
| 20260506134829 | 25 | 360 | 0.0 | 8.0 | 0.00 | 0.00 | 0.00 | 94 | 1008.4 |
| 20260506134323 | 25 | 360 | 1.6 | 8.0 | 0.00 | 0.00 | 0.00 | 95 | 1008.4 |
| 20260506133820 | 25 | 360 | 1.6 | 6.4 | 0.00 | 0.00 | 0.00 | 95 | 1008.4 |
| 20260506133341 | 25 | 360 | 3.2 | 6.4 | 0.00 | 0.00 | 0.00 | 95 | 1008.4 |
| 20260506132817 | 25 | 360 | 3.2 | 6.4 | 0.00 | 0.00 | 0.00 | 96 | 1008.4 |
| 20260506132336 | 25 | 360 | 1.6 | 3.2 | 0.00 | 0.00 | 0.00 | 96 | 1008.4 |
| 20260506131815 | 24 | 360 | 1.6 | 6.4 | 0.00 | 0.00 | 0.00 | 96 | 1008.3 |
| 20260506131315 | 24 | 360 | 3.2 | 6.4 | 0.00 | 0.00 | 0.00 | 96 | 1008.4 |
| 20260506130814 | 24 | 360 | 3.2 | 4.8 | 0.00 | 0.00 | 0.00 | 97 | 1008.3 |
| 20260506130313 | 24 | 360 | 0.0 | 3.2 | 0.00 | 0.00 | 0.00 | 97 | 1008.3 |
| 20260506125812 | 24 | 360 | 0.0 | 3.2 | 0.00 | 0.00 | 0.00 | 97 | 1008.4 |
| 20260506125312 | 24 | 360 | 1.6 | 3.2 | 0.00 | 0.00 | 0.00 | 97 | 1008.5 |
| 20260506124850 | 24 | 360 | 0.0 | 3.2 | 0.00 | 0.00 | 0.00 | 97 | 1008.6 |
| 20260506124328 | 24 | 360 | 0.0 | 1.6 | 0.00 | 0.00 | 0.00 | 96 | 1008.7 |
| 20260506123828 | 24 | 360 | 0.0 | 1.6 | 0.00 | 0.00 | 0.00 | 96 | 1008.6 |
| 20260506123328 | 24 | 360 | 0.0 | 1.6 | 0.00 | 0.00 | 0.00 | 96 | 1008.6 |
| 20260506122832 | 24 | 360 | 0.0 | 3.2 | 0.00 | 0.00 | 0.00 | 96 | 1008.5 |
| 20260506122330 | 24 | 360 | 1.6 | 3.2 | 0.00 | 0.00 | 0.00 | 96 | 1008.4 |
| 20260506121829 | 24 | 360 | 0.0 | 3.2 | 0.00 | 0.00 | 0.00 | 96 | 1008.4 |
| 20260506121328 | 23 | 360 | 0.0 | 3.2 | 0.00 | 0.00 | 0.00 | 96 | 1008.3 |
| 20260506120829 | 24 | 360 | 0.0 | 3.2 | 0.00 | 0.00 | 0.00 | 96 | 1008.3 |
| 20260506120320 | 24 | 360 | 0.0 | 3.2 | 0.00 | 0.00 | 0.00 | 96 | 1008.3 |
| 20260506115819 | 24 | 360 | 1.6 | 3.2 | 0.00 | 0.00 | 0.00 | 96 | 1008.3 |
| 20260506115317 | 24 | 360 | 1.6 | 8.0 | 0.00 | 0.00 | 0.00 | 96 | 1008.2 |
| 20260506114818 | 24 | 360 | 0.0 | 8.0 | 0.00 | 0.00 | 0.00 | 96 | 1008.1 |
| 20260506114312 | 24 | 360 | 0.0 | 3.2 | 0.00 | 0.00 | 0.00 | 96 | 1008.1 |
| 20260506113827 | 24 | 360 | 0.0 | 3.2 | 0.00 | 0.00 | 0.00 | 96 | 1008.1 |
| 20260506113327 | 24 | 360 | 0.0 | 4.8 | 0.00 | 0.00 | 0.00 | 96 | 1008.2 |
| 20260506112847 | 24 | 360 | 1.6 | 4.8 | 0.00 | 0.00 | 0.00 | 96 | 1008.2 |
| 20260506112327 | 24 | 360 | 1.6 | 6.4 | 0.00 | 0.00 | 0.00 | 96 | 1008.1 |
| 20260506111826 | 24 | 360 | 3.2 | 8.0 | 0.00 | 0.00 | 0.00 | 96 | 1007.9 |
| 20260506111324 | 24 | 360 | 4.8 | 8.0 | 0.00 | 0.00 | 0.00 | 96 | 1007.9 |
| 20260506110824 | 24 | 360 | 4.8 | 8.0 | 0.00 | 0.00 | 0.00 | 96 | 1007.9 |
| 20260506110323 | 24 | 360 | 3.2 | 9.7 | 0.00 | 0.00 | 0.00 | 96 | 1007.9 |
| 20260506105823 | 24 | 360 | 1.6 | 9.7 | 0.00 | 0.00 | 0.00 | 96 | 1007.8 |
| 20260506105343 | 24 | 360 | 4.8 | 9.7 | 0.00 | 0.00 | 0.00 | 96 | 1007.7 |
| 20260506104820 | 24 | 360 | 3.2 | 9.7 | 0.00 | 0.00 | 0.00 | 95 | 1007.7 |
| 20260506104313 | 24 | 360 | 3.2 | 12.9 | 0.00 | 0.00 | 0.00 | 95 | 1007.8 |
| 20260506103834 | 24 | 360 | 6.4 | 12.9 | 0.00 | 0.00 | 0.00 | 95 | 1007.7 |
| 20260506103313 | 24 | 360 | 3.2 | 14.5 | 0.00 | 0.00 | 0.00 | 95 | 1007.6 |
| 20260506102812 | 24 | 360 | 8.0 | 14.5 | 0.00 | 0.00 | 0.00 | 95 | 1007.7 |
| 20260506102312 | 24 | 360 | 9.7 | 14.5 | 0.00 | 0.00 | 0.00 | 95 | 1007.6 |
| 20260506101850 | 24 | 360 | 6.4 | 14.5 | 0.00 | 0.00 | 0.00 | 95 | 1007.7 |
| 20260506101327 | 24 | 360 | 8.0 | 14.5 | 0.00 | 0.00 | 0.00 | 95 | 1007.6 |
| 20260506100828 | 24 | 360 | 6.4 | 14.5 | 0.00 | 0.00 | 0.00 | 95 | 1007.6 |
| 20260506100324 | 24 | 360 | 6.4 | 17.7 | 0.00 | 0.00 | 0.00 | 95 | 1007.6 |
| 20260506095823 | 24 | 360 | 6.4 | 17.7 | 0.00 | 0.00 | 0.00 | 95 | 1007.4 |
| 20260506095324 | 24 | 360 | 8.0 | 17.7 | 0.00 | 0.00 | 0.00 | 95 | 1007.4 |
| 20260506094823 | 24 | 360 | 8.0 | 17.7 | 0.00 | 0.00 | 0.00 | 95 | 1007.2 |
| 20260506094336 | 24 | 360 | 4.8 | 16.1 | 0.00 | 0.00 | 0.00 | 95 | 1007.1 |
| 20260506093814 | 24 | 360 | 8.0 | 16.1 | 0.00 | 0.00 | 0.00 | 95 | 1007.1 |
| 20260506093314 | 24 | 360 | 3.2 | 19.3 | 0.00 | 0.00 | 0.00 | 95 | 1007.1 |
| 20260506092813 | 24 | 360 | 8.0 | 22.5 | 0.00 | 0.00 | 0.00 | 95 | 1007.0 |
| 20260506092332 | 24 | 360 | 8.0 | 20.9 | 0.00 | 0.00 | 0.00 | 95 | 1007.1 |
| 20260506091830 | 24 | 360 | 9.7 | 20.9 | 0.00 | 0.00 | 0.00 | 95 | 1007.0 |
| 20260506091332 | 24 | 360 | 9.7 | 19.3 | 0.00 | 0.00 | 0.00 | 95 | 1006.9 |
| 20260506090851 | 24 | 360 | 9.7 | 19.3 | 0.00 | 0.00 | 0.00 | 95 | 1007.0 |
| 20260506090328 | 24 | 360 | 6.4 | 16.1 | 0.00 | 0.00 | 0.00 | 95 | 1007.1 |
| 20260506085828 | 24 | 360 | 11.3 | 16.1 | 0.00 | 0.00 | 0.00 | 95 | 1007.2 |
| 20260506085347 | 24 | 360 | 6.4 | 12.9 | 0.00 | 0.00 | 0.00 | 95 | 1007.3 |
| 20260506084826 | 24 | 360 | 6.4 | 12.9 | 0.00 | 0.00 | 0.00 | 96 | 1007.3 |
| 20260506084325 | 24 | 360 | 6.4 | 17.7 | 0.00 | 0.00 | 0.00 | 96 | 1007.2 |
| 20260506083823 | 24 | 360 | 9.7 | 17.7 | 0.00 | 0.00 | 0.00 | 96 | 1007.1 |
| 20260506083312 | 24 | 360 | 8.0 | 17.7 | 0.00 | 0.00 | 0.00 | 96 | 1007.2 |
| 20260506082827 | 24 | 360 | 4.8 | 17.7 | 0.00 | 0.00 | 0.00 | 96 | 1007.2 |
| 20260506082327 | 24 | 360 | 6.4 | 12.9 | 0.00 | 0.00 | 0.00 | 96 | 1007.3 |
| 20260506081846 | 24 | 360 | 8.0 | 17.7 | 0.00 | 0.00 | 0.00 | 95 | 1007.2 |
| 20260506081344 | 24 | 360 | 8.0 | 14.5 | 0.00 | 0.00 | 0.00 | 95 | 1007.2 |
| 20260506080844 | 24 | 360 | 8.0 | 16.1 | 0.00 | 0.00 | 0.00 | 95 | 1007.2 |
| 20260506080318 | 24 | 360 | 9.7 | 16.1 | 0.00 | 0.00 | 0.00 | 95 | 1007.1 |
| 20260506073330 | 24 | 360 | 9.7 | 16.1 | 0.00 | 0.00 | 0.00 | 94 | 1007.5 |
| 20260506072829 | 24 | 360 | 8.0 | 17.7 | 0.00 | 0.00 | 0.00 | 94 | 1007.5 |
| 20260506072324 | 24 | 360 | 6.4 | 17.7 | 0.00 | 0.00 | 0.00 | 94 | 1007.6 |
| 20260506071823 | 24 | 360 | 9.7 | 19.3 | 0.00 | 0.00 | 0.00 | 95 | 1007.5 |
| 20260506071322 | 24 | 360 | 12.9 | 19.3 | 0.00 | 0.00 | 0.00 | 95 | 1007.6 |
| 20260506070842 | 24 | 360 | 8.0 | 17.7 | 0.00 | 0.00 | 0.00 | 95 | 1007.7 |
| 20260506070320 | 24 | 360 | 9.7 | 19.3 | 0.00 | 0.00 | 0.00 | 95 | 1007.6 |
| 20260506062313 | 24 | 360 | 11.3 | 24.1 | 0.00 | 0.00 | 0.00 | 95 | 1007.8 |
| 20260506061812 | 24 | 360 | 8.0 | 14.5 | 0.00 | 0.00 | 0.00 | 95 | 1007.8 |
| 20260506061349 | 24 | 360 | 6.4 | 16.1 | 0.00 | 0.00 | 0.00 | 95 | 1007.9 |
| 20260506060825 | 24 | 360 | 9.7 | 16.1 | 0.00 | 0.00 | 0.00 | 95 | 1007.9 |
| 20260506060314 | 24 | 360 | 4.8 | 14.5 | 0.00 | 0.00 | 0.00 | 95 | 1007.8 |
| 20260506051337 | 24 | 360 | 4.8 | 12.9 | 0.00 | 0.00 | 0.00 | 94 | 1007.9 |
| 20260506050813 | 24 | 360 | 4.8 | 12.9 | 0.00 | 0.00 | 0.00 | 94 | 1007.9 |
| 20260506050312 | 24 | 360 | 3.2 | 12.9 | 0.00 | 0.00 | 0.00 | 94 | 1007.9 |
| 20260506044833 | 25 | 360 | 4.8 | 14.5 | 0.00 | 0.00 | 0.00 | 93 | 1007.8 |
| 20260506044330 | 25 | 360 | 4.8 | 17.7 | 0.00 | 0.00 | 0.00 | 93 | 1007.8 |
| 20260506043829 | 25 | 360 | 6.4 | 17.7 | 0.00 | 0.00 | 0.00 | 93 | 1007.9 |
| 20260506043348 | 25 | 360 | 6.4 | 17.7 | 0.00 | 0.00 | 0.00 | 93 | 1007.9 |
| 20260506042827 | 25 | 360 | 6.4 | 17.7 | 0.00 | 0.00 | 0.00 | 93 | 1007.8 |
| 20260506042327 | 25 | 360 | 9.7 | 17.7 | 0.00 | 0.00 | 0.00 | 93 | 1007.7 |
| 20260506041828 | 25 | 360 | 8.0 | 17.7 | 0.00 | 0.00 | 0.00 | 93 | 1007.6 |
| 20260506041347 | 25 | 360 | 8.0 | 16.1 | 0.00 | 0.00 | 0.00 | 92 | 1007.7 |
| 20260506040824 | 25 | 360 | 6.4 | 19.3 | 0.00 | 0.00 | 0.00 | 92 | 1007.6 |
| 20260506040325 | 25 | 360 | 9.7 | 19.3 | 0.00 | 0.00 | 0.00 | 92 | 1007.6 |
| 20260506035823 | 25 | 360 | 8.0 | 19.3 | 0.00 | 0.00 | 0.00 | 92 | 1007.7 |
| 20260506035324 | 25 | 360 | 8.0 | 17.7 | 0.00 | 0.00 | 0.00 | 92 | 1007.6 |
| 20260506034824 | 25 | 360 | 8.0 | 17.7 | 0.00 | 0.00 | 0.00 | 91 | 1007.5 |
| 20260506034324 | 25 | 360 | 6.4 | 20.9 | 0.00 | 0.00 | 0.00 | 91 | 1007.3 |
| 20260506033813 | 25 | 360 | 8.0 | 22.5 | 0.00 | 0.00 | 0.00 | 91 | 1007.1 |
| 20260506033351 | 25 | 360 | 11.3 | 22.5 | 0.00 | 0.00 | 0.00 | 91 | 1007.1 |
| 20260506032830 | 25 | 360 | 6.4 | 19.3 | 0.00 | 0.00 | 0.00 | 91 | 1007.0 |
| 20260506032349 | 25 | 360 | 8.0 | 19.3 | 0.00 | 0.00 | 0.00 | 90 | 1007.0 |
| 20260506031829 | 25 | 360 | 8.0 | 16.1 | 0.00 | 0.00 | 0.00 | 90 | 1006.9 |
| 20260506031325 | 25 | 360 | 8.0 | 17.7 | 0.00 | 0.00 | 0.00 | 90 | 1006.8 |
| 20260506030823 | 25 | 360 | 8.0 | 22.5 | 0.00 | 0.00 | 0.00 | 90 | 1006.7 |
| 20260506030322 | 25 | 360 | 11.3 | 22.5 | 0.00 | 0.00 | 0.00 | 89 | 1006.5 |
| 20260506025819 | 25 | 360 | 11.3 | 22.5 | 0.00 | 0.00 | 0.00 | 89 | 1006.4 |
| 20260506025319 | 25 | 360 | 11.3 | 19.3 | 0.00 | 0.00 | 0.00 | 89 | 1006.4 |
| 20260506024819 | 26 | 360 | 9.7 | 17.7 | 0.00 | 0.00 | 0.00 | 89 | 1006.3 |
| 20260506024319 | 26 | 360 | 8.0 | 20.9 | 0.00 | 0.00 | 0.00 | 88 | 1006.3 |
| 20260506023818 | 26 | 360 | 9.7 | 20.9 | 0.00 | 0.00 | 0.00 | 88 | 1006.3 |
| 20260506023319 | 26 | 360 | 9.7 | 20.9 | 0.00 | 0.00 | 0.00 | 88 | 1006.2 |
| 20260506022816 | 26 | 360 | 8.0 | 20.9 | 0.00 | 0.00 | 0.00 | 87 | 1006.2 |
| 20260506022316 | 26 | 360 | 12.9 | 19.3 | 0.00 | 0.00 | 0.00 | 87 | 1006.2 |
| 20260506021812 | 26 | 360 | 9.7 | 17.7 | 0.00 | 0.00 | 0.00 | 87 | 1006.1 |
| 20260506021313 | 26 | 360 | 8.0 | 16.1 | 0.00 | 0.00 | 0.00 | 87 | 1006.2 |
| 20260506020831 | 26 | 360 | 8.0 | 14.5 | 0.00 | 0.00 | 0.00 | 86 | 1006.2 |
| 20260506020332 | 26 | 360 | 4.8 | 12.9 | 0.00 | 0.00 | 0.00 | 86 | 1006.2 |
| 20260506015830 | 26 | 360 | 4.8 | 12.9 | 0.00 | 0.00 | 0.00 | 86 | 1006.1 |
| 20260506015331 | 26 | 360 | 6.4 | 17.7 | 0.00 | 0.00 | 0.00 | 86 | 1006.1 |
| 20260506014830 | 26 | 360 | 4.8 | 19.3 | 0.00 | 0.00 | 0.00 | 85 | 1006.0 |
| 20260506014329 | 27 | 360 | 11.3 | 19.3 | 0.00 | 0.00 | 0.00 | 85 | 1006.0 |
| 20260506013848 | 27 | 360 | 4.8 | 12.9 | 0.00 | 0.00 | 0.00 | 84 | 1005.9 |
| 20260506013347 | 27 | 360 | 3.2 | 12.9 | 0.00 | 0.00 | 0.00 | 84 | 1005.8 |
| 20260506012844 | 27 | 360 | 4.8 | 16.1 | 0.00 | 0.00 | 0.00 | 83 | 1005.7 |
| 20260506012322 | 27 | 360 | 11.3 | 19.3 | 0.00 | 0.00 | 0.00 | 83 | 1005.7 |
| 20260506011821 | 27 | 360 | 9.7 | 19.3 | 0.00 | 0.00 | 0.00 | 83 | 1005.6 |
| 20260506011319 | 27 | 360 | 8.0 | 17.7 | 0.00 | 0.00 | 0.00 | 83 | 1005.7 |
| 20260506010819 | 27 | 360 | 9.7 | 17.7 | 0.00 | 0.00 | 0.00 | 83 | 1005.6 |
| 20260506010319 | 27 | 360 | 8.0 | 14.5 | 0.00 | 0.00 | 0.00 | 83 | 1005.4 |
| 20260506005820 | 27 | 360 | 6.4 | 12.9 | 0.00 | 0.00 | 0.00 | 82 | 1005.3 |
| 20260506005318 | 27 | 360 | 3.2 | 8.0 | 0.00 | 0.00 | 0.00 | 82 | 1005.3 |
| 20260506004816 | 28 | 360 | 3.2 | 8.0 | 0.00 | 0.00 | 0.00 | 82 | 1005.3 |
| 20260506004337 | 28 | 360 | 4.8 | 9.7 | 0.00 | 0.00 | 0.00 | 81 | 1005.3 |
| 20260506003816 | 28 | 360 | 4.8 | 9.7 | 0.00 | 0.00 | 0.00 | 81 | 1005.2 |
| 20260506003315 | 28 | 360 | 3.2 | 8.0 | 0.00 | 0.00 | 0.00 | 80 | 1005.1 |
| 20260506002813 | 28 | 360 | 3.2 | 8.0 | 0.00 | 0.00 | 0.00 | 80 | 1005.1 |
| 20260506002312 | 28 | 360 | 4.8 | 9.7 | 0.00 | 0.00 | 0.00 | 80 | 1005.0 |
| 20260506001852 | 28 | 360 | 4.8 | 9.7 | 0.00 | 0.00 | 0.00 | 79 | 1005.0 |
| 20260506001331 | 28 | 360 | 4.8 | 9.7 | 0.00 | 0.00 | 0.00 | 78 | 1004.9 |
| 20260506000831 | 29 | 360 | 4.8 | 9.7 | 0.00 | 0.00 | 0.00 | 78 | 1004.9 |
| 20260506000330 | 29 | 360 | 4.8 | 14.5 | 0.00 | 0.00 | 0.00 | 77 | 1004.9 |
| 20260505235828 | 28 | 360 | 6.4 | 14.5 | 0.00 | 0.00 | 0.00 | 77 | 1004.8 |
| 20260505235328 | 29 | 360 | 6.4 | 12.9 | 0.00 | 0.00 | 0.00 | 77 | 1004.7 |
| 20260505234828 | 29 | 360 | 6.4 | 12.9 | 0.00 | 0.00 | 0.00 | 77 | 1004.7 |
| 20260505234326 | 29 | 360 | 6.4 | 16.1 | 0.00 | 0.00 | 0.00 | 76 | 1004.8 |
| 20260505233824 | 29 | 360 | 9.7 | 17.7 | 0.00 | 0.00 | 0.00 | 76 | 1004.7 |
| 20260505233346 | 29 | 360 | 9.7 | 17.7 | 0.00 | 0.00 | 0.00 | 75 | 1004.6 |
| 20260505232826 | 30 | 360 | 6.4 | 19.3 | 0.00 | 0.00 | 0.00 | 75 | 1004.7 |
| 20260505232327 | 30 | 360 | 9.7 | 19.3 | 0.00 | 0.00 | 0.00 | 75 | 1004.7 |
| 20260505231824 | 30 | 360 | 6.4 | 17.7 | 0.00 | 0.00 | 0.00 | 76 | 1004.7 |
| 20260505231325 | 30 | 360 | 11.3 | 19.3 | 0.00 | 0.00 | 0.00 | 76 | 1004.7 |
| 20260505230824 | 30 | 360 | 11.3 | 19.3 | 0.00 | 0.00 | 0.00 | 75 | 1004.7 |
| 20260505230323 | 30 | 360 | 9.7 | 16.1 | 0.00 | 0.00 | 0.00 | 75 | 1004.7 |
| 20260505225839 | 30 | 360 | 6.4 | 16.1 | 0.00 | 0.00 | 0.00 | 74 | 1004.6 |
| 20260505225317 | 30 | 360 | 8.0 | 19.3 | 0.00 | 0.00 | 0.00 | 75 | 1004.7 |
| 20260505224817 | 30 | 360 | 8.0 | 20.9 | 0.00 | 0.00 | 0.00 | 74 | 1004.7 |
| 20260505224336 | 30 | 360 | 14.5 | 20.9 | 0.00 | 0.00 | 0.00 | 73 | 1004.7 |
| 20260505223813 | 30 | 360 | 8.0 | 20.9 | 0.00 | 0.00 | 0.00 | 75 | 1004.8 |
| 20260505223353 | 30 | 360 | 11.3 | 20.9 | 0.00 | 0.00 | 0.00 | 74 | 1004.8 |
| 20260505222812 | 30 | 360 | 9.7 | 17.7 | 0.00 | 0.00 | 0.00 | 74 | 1004.8 |
| 20260505222313 | 30 | 360 | 9.7 | 17.7 | 0.00 | 0.00 | 0.00 | 74 | 1004.9 |
| 20260505221814 | 30 | 360 | 8.0 | 17.7 | 0.00 | 0.00 | 0.00 | 75 | 1004.8 |
| 20260505221333 | 30 | 360 | 9.7 | 17.7 | 0.00 | 0.00 | 0.00 | 75 | 1004.9 |
| 20260505220852 | 30 | 360 | 8.0 | 24.1 | 0.00 | 0.00 | 0.00 | 74 | 1005.0 |
| 20260505220350 | 30 | 360 | 8.0 | 24.1 | 0.00 | 0.00 | 0.00 | 72 | 1005.0 |
| 20260505215814 | 30 | 360 | 9.7 | 20.9 | 0.00 | 0.00 | 0.00 | 74 | 1005.1 |
| 20260505215331 | 30 | 360 | 11.3 | 20.9 | 0.00 | 0.00 | 0.00 | 75 | 1005.1 |
| 20260505214831 | 30 | 360 | 12.9 | 25.7 | 0.00 | 0.00 | 0.00 | 75 | 1005.2 |
| 20260505214331 | 30 | 360 | 12.9 | 27.4 | 0.00 | 0.00 | 0.00 | 74 | 1005.2 |
| 20260505213829 | 30 | 360 | 8.0 | 27.4 | 0.00 | 0.00 | 0.00 | 76 | 1005.4 |
| 20260505213328 | 30 | 360 | 8.0 | 24.1 | 0.00 | 0.00 | 0.00 | 76 | 1005.3 |
| 20260505212829 | 30 | 360 | 12.9 | 24.1 | 0.00 | 0.00 | 0.00 | 74 | 1005.5 |
| 20260505212327 | 30 | 360 | 8.0 | 20.9 | 0.00 | 0.00 | 0.00 | 74 | 1005.5 |
| 20260505211825 | 30 | 360 | 6.4 | 24.1 | 0.00 | 0.00 | 0.00 | 74 | 1005.4 |
| 20260505211323 | 30 | 360 | 11.3 | 20.9 | 0.00 | 0.00 | 0.00 | 74 | 1005.5 |
| 20260505210821 | 29 | 360 | 12.9 | 24.1 | 0.00 | 0.00 | 0.00 | 75 | 1005.5 |
| 20260505210320 | 29 | 360 | 12.9 | 24.1 | 0.00 | 0.00 | 0.00 | 76 | 1005.6 |
| 20260505205839 | 29 | 360 | 6.4 | 22.5 | 0.00 | 0.00 | 0.00 | 75 | 1005.8 |
| 20260505205317 | 30 | 360 | 12.9 | 22.5 | 0.00 | 0.00 | 0.00 | 75 | 1005.9 |
| 20260505204817 | 30 | 360 | 11.3 | 19.3 | 0.00 | 0.00 | 0.00 | 74 | 1006.0 |
| 20260505204336 | 30 | 360 | 8.0 | 25.7 | 0.00 | 0.00 | 0.00 | 75 | 1006.1 |
| 20260505203814 | 30 | 360 | 14.5 | 25.7 | 0.00 | 0.00 | 0.00 | 73 | 1006.1 |
| 20260505203316 | 30 | 360 | 12.9 | 27.4 | 0.00 | 0.00 | 0.00 | 75 | 1006.1 |
| 20260505202835 | 30 | 360 | 12.9 | 27.4 | 0.00 | 0.00 | 0.00 | 75 | 1006.3 |
| 20260505202332 | 30 | 360 | 8.0 | 19.3 | 0.00 | 0.00 | 0.00 | 76 | 1006.3 |
| 20260505201831 | 29 | 360 | 11.3 | 19.3 | 0.00 | 0.00 | 0.00 | 76 | 1006.3 |
| 20260505201326 | 29 | 360 | 8.0 | 24.1 | 0.00 | 0.00 | 0.00 | 76 | 1006.4 |
| 20260505200823 | 29 | 360 | 11.3 | 22.5 | 0.00 | 0.00 | 0.00 | 75 | 1006.5 |
| 20260505200320 | 29 | 360 | 11.3 | 19.3 | 0.00 | 0.00 | 0.00 | 76 | 1006.5 |
| 20260505195814 | 29 | 360 | 11.3 | 24.1 | 0.00 | 0.00 | 0.00 | 75 | 1006.5 |
| 20260505195327 | 29 | 360 | 12.9 | 29.0 | 0.00 | 0.00 | 0.00 | 75 | 1006.6 |
| 20260505194826 | 29 | 360 | 16.1 | 29.0 | 0.00 | 0.00 | 0.00 | 75 | 1006.7 |
| 20260505194320 | 29 | 360 | 9.7 | 20.9 | 0.00 | 0.00 | 0.00 | 76 | 1006.8 |
| 20260505193821 | 29 | 360 | 12.9 | 27.4 | 0.00 | 0.00 | 0.00 | 77 | 1006.8 |
| 20260505193318 | 28 | 360 | 14.5 | 27.4 | 0.00 | 0.00 | 0.00 | 76 | 1006.9 |
| 20260505192819 | 29 | 360 | 17.7 | 27.4 | 0.00 | 0.00 | 0.00 | 75 | 1007.0 |
| 20260505192319 | 29 | 360 | 8.0 | 20.9 | 0.00 | 0.00 | 0.00 | 78 | 1007.1 |
| 20260505191817 | 28 | 360 | 11.3 | 17.7 | 0.00 | 0.00 | 0.00 | 80 | 1007.3 |
| 20260505191329 | 28 | 360 | 4.8 | 19.3 | 0.00 | 0.00 | 0.00 | 80 | 1007.4 |
| 20260505190826 | 28 | 360 | 11.3 | 19.3 | 0.00 | 0.00 | 0.00 | 79 | 1007.4 |
| 20260505190325 | 28 | 360 | 9.7 | 22.5 | 0.00 | 0.00 | 0.00 | 79 | 1007.3 |
| 20260505185844 | 28 | 360 | 6.4 | 22.5 | 0.00 | 0.00 | 0.00 | 78 | 1007.4 |
| 20260505185323 | 28 | 360 | 14.5 | 22.5 | 0.00 | 0.00 | 0.00 | 78 | 1007.5 |